createdAt,value
2022-12-16T00:02:37.140Z,-7.10
2022-12-16T00:07:42.510Z,-7.10
2022-12-16T00:12:47.525Z,-7.10
2022-12-16T00:17:52.604Z,-7.10
2022-12-16T00:22:58.599Z,-7.00
2022-12-16T00:28:03.628Z,-7.10
2022-12-16T00:33:08.816Z,-7.20
2022-12-16T00:38:14.293Z,-7.20
2022-12-16T00:43:20.345Z,-7.20
2022-12-16T00:48:25.756Z,-7.30
2022-12-16T00:53:31.341Z,-7.40
2022-12-16T00:58:37.594Z,-7.60
2022-12-16T01:03:43.028Z,-7.70
2022-12-16T01:08:51.293Z,-7.70
2022-12-16T01:13:57.556Z,-7.80
2022-12-16T01:19:02.765Z,-7.90
2022-12-16T01:24:07.996Z,-8.00
2022-12-16T01:29:13.652Z,-8.00
2022-12-16T01:34:18.888Z,-8.00
2022-12-16T01:39:25.224Z,-7.90
2022-12-16T01:44:30.444Z,-7.90
2022-12-16T01:49:44.441Z,-8.00
2022-12-16T01:55:11.699Z,-7.90
2022-12-16T02:00:16.979Z,-7.90
2022-12-16T02:05:22.493Z,-7.90
2022-12-16T02:10:36.502Z,-8.00
2022-12-16T02:15:45.475Z,-8.00
2022-12-16T02:21:14.242Z,-8.10
2022-12-16T02:26:34.068Z,-8.10
2022-12-16T02:32:04.341Z,-8.10
2022-12-16T02:37:21.571Z,-8.20
2022-12-16T02:42:37.674Z,-8.30
2022-12-16T02:47:42.808Z,-8.30
2022-12-16T02:52:48.078Z,-8.40
2022-12-16T02:58:05.309Z,-8.50
2022-12-16T03:03:31.691Z,-8.50
2022-12-16T03:08:40.368Z,-8.50
2022-12-16T03:13:48.818Z,-8.50
2022-12-16T03:18:57.002Z,-8.60
2022-12-16T03:24:07.935Z,-8.60
2022-12-16T03:29:30.696Z,-8.70
2022-12-16T03:34:47.550Z,-8.60
2022-12-16T03:39:56.015Z,-8.60
2022-12-16T03:45:01.461Z,-8.50
2022-12-16T03:50:07.383Z,-8.40
2022-12-16T03:55:12.487Z,-8.40
2022-12-16T04:00:17.753Z,-8.40
2022-12-16T04:05:23.448Z,-8.40
2022-12-16T04:10:46.367Z,-8.50
2022-12-16T04:16:09.188Z,-8.50
2022-12-16T04:21:32.386Z,-8.50
2022-12-16T04:26:39.224Z,-8.50
2022-12-16T04:31:44.327Z,-8.50
2022-12-16T04:37:06.931Z,-8.50
2022-12-16T04:42:29.684Z,-8.40
2022-12-16T04:47:57.110Z,-8.50
2022-12-16T04:53:17.276Z,-8.60
2022-12-16T04:58:39.770Z,-8.70
2022-12-16T05:04:02.832Z,-8.60
2022-12-16T05:09:26.193Z,-8.60
2022-12-16T05:14:48.957Z,-8.60
2022-12-16T05:20:11.696Z,-8.50
2022-12-16T05:25:34.566Z,-8.40
2022-12-16T05:30:57.603Z,-8.30
2022-12-16T05:36:20.508Z,-8.20
2022-12-16T05:41:43.910Z,-8.10
2022-12-16T05:47:06.978Z,-8.10
2022-12-16T05:52:30.914Z,-8.10
2022-12-16T05:57:53.810Z,-8.00
2022-12-16T06:03:18.708Z,-8.00
2022-12-16T06:08:41.399Z,-8.00
2022-12-16T06:14:04.253Z,-8.10
2022-12-16T06:19:27.381Z,-8.10
2022-12-16T06:24:50.106Z,-8.00
2022-12-16T06:30:13.277Z,-8.00
2022-12-16T06:35:36.032Z,-8.00
2022-12-16T06:40:57.343Z,-8.00
2022-12-16T06:46:20.161Z,-8.10
2022-12-16T06:51:44.179Z,-8.10
2022-12-16T06:57:07.062Z,-8.10
2022-12-16T07:02:30.848Z,-8.10
2022-12-16T07:07:53.811Z,-8.00
2022-12-16T07:13:18.877Z,-7.90
2022-12-16T07:18:41.762Z,-7.80
2022-12-16T07:23:48.563Z,-7.60
2022-12-16T07:29:11.571Z,-7.50
2022-12-16T07:34:40.059Z,-7.40
2022-12-16T07:39:59.408Z,-7.30
2022-12-16T07:45:23.027Z,-7.10
2022-12-16T07:50:46.102Z,-7.00
2022-12-16T07:56:09.813Z,-6.80
2022-12-16T08:01:32.959Z,-6.60
2022-12-16T08:06:57.436Z,-6.40
2022-12-16T08:12:20.893Z,-6.20
2022-12-16T08:17:43.924Z,-6.00
2022-12-16T08:23:07.316Z,-5.90
2022-12-16T08:28:30.594Z,-5.70
2022-12-16T08:33:53.944Z,-5.60
2022-12-16T08:39:18.110Z,-5.40
2022-12-16T08:44:41.302Z,-5.30
2022-12-16T08:50:04.597Z,-5.20
2022-12-16T08:55:29.732Z,-5.00
2022-12-16T09:00:51.783Z,-4.90
2022-12-16T09:06:18.995Z,-4.70
2022-12-16T09:11:41.936Z,-4.50
2022-12-16T09:17:04.829Z,-4.40
2022-12-16T09:22:28.291Z,-4.20
2022-12-16T09:27:51.199Z,-4.10
2022-12-16T09:33:13.970Z,-4.00
2022-12-16T09:38:36.978Z,-3.90
2022-12-16T09:44:14.618Z,-3.80
2022-12-16T09:50:01.796Z,-3.80
2022-12-16T09:55:27.059Z,-3.70
2022-12-16T10:00:50.399Z,-3.60
2022-12-16T10:06:31.198Z,-3.60
2022-12-16T10:12:13.976Z,-3.50
2022-12-16T10:17:39.856Z,-3.40
2022-12-16T10:23:18.096Z,-3.40
2022-12-16T10:29:06.495Z,-3.40
2022-12-16T10:34:34.179Z,-3.30
2022-12-16T10:40:02.860Z,-3.30
2022-12-16T10:45:28.828Z,-3.30
2022-12-16T10:50:51.693Z,-3.30
2022-12-16T10:56:20.612Z,-3.30
2022-12-16T11:01:45.782Z,-3.20
2022-12-16T11:07:08.798Z,-3.20
2022-12-16T11:12:51.586Z,-3.10
2022-12-16T11:18:23.829Z,-3.10
2022-12-16T11:23:46.567Z,-3.20
2022-12-16T11:29:31.200Z,-3.20
2022-12-16T11:34:55.163Z,-3.30
2022-12-16T11:40:21.056Z,-3.30
2022-12-16T11:45:43.982Z,-3.40
2022-12-16T11:51:15.674Z,-3.40
2022-12-16T11:56:44.917Z,-3.50
2022-12-16T12:02:14.256Z,-3.50
2022-12-16T12:07:46.368Z,-3.50
2022-12-16T12:13:12.563Z,-3.60
2022-12-16T12:18:28.415Z,-3.60
2022-12-16T12:24:12.209Z,-3.60
2022-12-16T12:29:50.144Z,-3.60
2022-12-16T12:35:28.100Z,-3.50
2022-12-16T12:41:03.064Z,-3.60
2022-12-16T12:46:47.102Z,-3.60
2022-12-16T12:52:19.052Z,-3.70
2022-12-16T12:57:45.071Z,-3.70
2022-12-16T13:03:14.254Z,-3.80
2022-12-16T13:09:05.516Z,-3.80
2022-12-16T13:14:51.425Z,-3.90
2022-12-16T13:20:16.527Z,-3.90
2022-12-16T13:25:52.614Z,-4.00
2022-12-16T13:31:24.647Z,-4.00
2022-12-16T13:36:46.714Z,-3.90
2022-12-16T13:42:12.156Z,-3.90
2022-12-16T13:48:00.578Z,-3.90
2022-12-16T13:53:25.185Z,-3.90
2022-12-16T13:59:10.727Z,-3.90
2022-12-16T14:04:36.692Z,-3.90
2022-12-16T14:10:01.512Z,-3.90
2022-12-16T14:15:27.342Z,-3.90
2022-12-16T14:20:53.041Z,-3.90
2022-12-16T14:26:12.141Z,-3.90
2022-12-16T14:31:41.111Z,-4.00
2022-12-16T14:37:04.808Z,-4.00
2022-12-16T14:42:46.700Z,-4.00
2022-12-16T14:48:10.562Z,-4.00
2022-12-16T14:53:36.217Z,-4.00
2022-12-16T14:58:52.346Z,-4.10
2022-12-16T15:04:15.822Z,-4.10
2022-12-16T15:09:44.729Z,-4.10
2022-12-16T15:15:07.771Z,-4.10
2022-12-16T15:20:36.405Z,-4.10
2022-12-16T15:26:03.843Z,-4.10
2022-12-16T15:31:27.119Z,-4.10
2022-12-16T15:36:53.010Z,-4.10
2022-12-16T15:42:16.364Z,-4.20
2022-12-16T15:47:42.347Z,-4.10
2022-12-16T15:53:05.678Z,-4.10
2022-12-16T15:58:43.040Z,-4.20
2022-12-16T16:04:09.246Z,-4.30
2022-12-16T16:09:47.263Z,-4.20
2022-12-16T16:15:10.129Z,-4.30
2022-12-16T16:20:35.182Z,-4.20
2022-12-16T16:26:03.672Z,-4.20
2022-12-16T16:31:22.802Z,-4.20
2022-12-16T16:36:45.651Z,-4.30
2022-12-16T16:42:08.643Z,-4.20
2022-12-16T16:47:34.350Z,-4.20
2022-12-16T16:52:57.032Z,-4.20
2022-12-16T16:58:21.756Z,-4.20
2022-12-16T17:03:45.036Z,-4.30
2022-12-16T17:09:08.141Z,-4.30
2022-12-16T17:14:32.500Z,-4.30
2022-12-16T17:19:55.415Z,-4.20
2022-12-16T17:25:18.324Z,-4.30
2022-12-16T17:30:46.815Z,-4.30
2022-12-16T17:36:09.201Z,-4.30
2022-12-16T17:41:31.345Z,-4.20
2022-12-16T17:46:54.271Z,-4.20
2022-12-16T17:52:17.644Z,-4.20
2022-12-16T17:57:40.958Z,-4.20
2022-12-16T18:03:06.142Z,-4.20
2022-12-16T18:08:29.323Z,-4.20
2022-12-16T18:13:52.302Z,-4.20
2022-12-16T18:19:14.779Z,-4.20
2022-12-16T18:24:37.692Z,-4.20
2022-12-16T18:30:00.316Z,-4.20
2022-12-16T18:35:23.560Z,-4.20
2022-12-16T18:40:46.377Z,-4.20
2022-12-16T18:46:13.270Z,-4.20
2022-12-16T18:51:36.552Z,-4.10
2022-12-16T18:56:59.663Z,-4.20
2022-12-16T19:02:09.254Z,-4.20
2022-12-16T19:07:34.194Z,-4.20
2022-12-16T19:12:58.388Z,-4.20
2022-12-16T19:18:21.217Z,-4.20
2022-12-16T19:23:44.043Z,-4.30
2022-12-16T19:29:07.264Z,-4.20
2022-12-16T19:34:30.167Z,-4.30
2022-12-16T19:39:53.144Z,-4.30
2022-12-16T19:45:16.757Z,-4.20
2022-12-16T19:50:39.702Z,-4.20
2022-12-16T19:56:02.450Z,-4.30
2022-12-16T20:01:28.168Z,-4.30
2022-12-16T20:06:50.764Z,-4.30
2022-12-16T20:12:15.507Z,-4.30
2022-12-16T20:17:38.220Z,-4.30
2022-12-16T20:23:02.508Z,-4.30
2022-12-16T20:28:25.419Z,-4.30
2022-12-16T20:33:48.370Z,-4.20
2022-12-16T20:39:12.540Z,-4.20
2022-12-16T20:44:35.545Z,-4.20
2022-12-16T20:49:58.641Z,-4.30
2022-12-16T20:55:21.489Z,-4.30
2022-12-16T21:00:44.591Z,-4.30
2022-12-16T21:06:07.683Z,-4.30
2022-12-16T21:11:31.245Z,-4.30
2022-12-16T21:16:53.712Z,-4.30
2022-12-16T21:22:17.935Z,-4.30
2022-12-16T21:27:40.804Z,-4.30
2022-12-16T21:33:04.090Z,-4.40
2022-12-16T21:38:30.578Z,-4.30
2022-12-16T21:43:53.291Z,-4.30
2022-12-16T21:49:16.191Z,-4.30
2022-12-16T21:54:39.062Z,-4.30
2022-12-16T22:00:02.175Z,-4.30
2022-12-16T22:05:25.250Z,-4.40
2022-12-16T22:10:48.265Z,-4.40
2022-12-16T22:16:16.299Z,-4.40
2022-12-16T22:21:39.416Z,-4.40
2022-12-16T22:27:02.306Z,-4.40
2022-12-16T22:32:25.156Z,-4.40
2022-12-16T22:37:48.168Z,-4.50
2022-12-16T22:43:11.028Z,-4.50
2022-12-16T22:48:33.881Z,-4.50
2022-12-16T22:53:57.015Z,-4.50
2022-12-16T22:59:19.530Z,-4.50
2022-12-16T23:04:42.327Z,-4.50
2022-12-16T23:10:05.285Z,-4.60
2022-12-16T23:15:30.658Z,-4.70
2022-12-16T23:20:53.543Z,-4.60
2022-12-16T23:26:20.595Z,-4.70
2022-12-16T23:31:43.491Z,-4.70
2022-12-16T23:37:06.130Z,-4.70
2022-12-16T23:42:28.993Z,-4.70
2022-12-16T23:47:51.907Z,-4.70
2022-12-16T23:53:26.220Z,-4.70
2022-12-16T23:58:49.019Z,-4.70
